createdAt,value
2022-08-22T04:31:03.239Z,12.00
2022-08-22T04:32:03.214Z,9.10
2022-08-22T04:33:03.209Z,7.80
2022-08-22T04:34:03.192Z,10.10
2022-08-22T04:35:03.169Z,10.20
2022-08-22T04:36:03.160Z,9.60
2022-08-22T04:37:03.149Z,10.10
2022-08-22T04:38:03.139Z,8.60
2022-08-22T04:39:03.129Z,7.00
2022-08-22T04:40:03.160Z,8.20
2022-08-22T04:41:04.677Z,9.70
2022-08-22T04:42:16.322Z,6.80
2022-08-22T04:43:04.138Z,8.90
2022-08-22T04:44:03.060Z,8.10
2022-08-22T04:45:03.040Z,7.90
2022-08-22T04:46:03.027Z,10.70
2022-08-22T04:47:03.009Z,5.70
2022-08-22T04:48:03.021Z,10.10
2022-08-22T04:49:02.997Z,7.90
2022-08-22T04:50:02.984Z,7.50
2022-08-22T04:51:02.959Z,8.00
2022-08-22T04:52:02.948Z,7.80
2022-08-22T04:53:02.964Z,11.40
2022-08-22T04:54:02.931Z,10.10
2022-08-22T04:55:02.918Z,6.70
2022-08-22T04:56:07.116Z,9.20
2022-08-22T04:57:02.890Z,11.80
2022-08-22T04:58:02.879Z,10.00
2022-08-22T04:59:03.081Z,8.90
2022-08-22T05:00:02.847Z,8.70
2022-08-22T05:01:02.837Z,9.20
2022-08-22T05:02:02.844Z,9.10
2022-08-22T05:03:02.807Z,7.10
2022-08-22T05:04:02.808Z,8.00
2022-08-22T05:05:02.778Z,7.90
2022-08-22T05:06:02.763Z,6.80
2022-08-22T05:07:02.747Z,8.20
2022-08-22T05:08:02.741Z,7.10
2022-08-22T05:09:02.738Z,7.70
2022-08-22T05:10:09.279Z,8.50
2022-08-22T05:11:03.701Z,6.90
2022-08-22T05:12:02.679Z,5.40
2022-08-22T05:13:02.677Z,7.30
2022-08-22T05:14:02.668Z,9.30
2022-08-22T05:15:02.648Z,7.00
2022-08-22T05:16:02.627Z,8.70
2022-08-22T05:17:02.616Z,7.70
2022-08-22T05:18:02.610Z,10.20
2022-08-22T05:19:02.597Z,6.90
2022-08-22T05:20:02.581Z,9.00
2022-08-22T05:21:02.568Z,8.20
2022-08-22T05:22:02.569Z,7.80
2022-08-22T05:23:02.527Z,6.70
2022-08-22T05:24:02.538Z,10.10
2022-08-22T05:25:02.507Z,6.70
2022-08-22T05:26:02.505Z,6.70
2022-08-22T05:27:02.487Z,7.60
2022-08-22T05:28:02.475Z,7.10
2022-08-22T05:29:02.466Z,6.80
2022-08-22T05:30:02.437Z,7.60
2022-08-22T05:31:02.438Z,4.60
2022-08-22T05:32:02.432Z,8.70
2022-08-22T05:33:02.479Z,9.10
2022-08-22T05:34:02.403Z,7.30
2022-08-22T05:35:02.366Z,9.40
2022-08-22T05:36:02.356Z,10.20
2022-08-22T05:37:02.347Z,9.90
2022-08-22T05:38:02.339Z,7.30
2022-08-22T05:39:02.337Z,7.00
2022-08-22T05:40:02.428Z,8.80
2022-08-22T05:41:02.296Z,7.70
2022-08-22T05:42:02.288Z,7.70
2022-08-22T05:43:02.268Z,6.70
2022-08-22T05:44:02.271Z,7.30
2022-08-22T05:45:02.246Z,13.30
2022-08-22T05:46:02.240Z,8.20
2022-08-22T05:47:02.225Z,6.60
2022-08-22T05:48:02.206Z,6.40
2022-08-22T05:49:02.200Z,7.80
2022-08-22T05:50:02.188Z,9.60
2022-08-22T05:51:02.156Z,9.00
2022-08-22T05:52:02.148Z,10.40
2022-08-22T05:53:02.136Z,11.10
2022-08-22T05:54:02.145Z,9.70
2022-08-22T05:55:02.109Z,12.40
2022-08-22T05:56:02.107Z,8.50
2022-08-22T05:57:04.976Z,10.10
2022-08-22T05:58:03.084Z,8.70
2022-08-22T05:59:02.068Z,8.20
2022-08-22T06:00:02.045Z,9.20
2022-08-22T06:01:02.034Z,12.10
2022-08-22T06:02:02.105Z,12.30
2022-08-22T06:03:02.006Z,8.40
2022-08-22T06:04:02.017Z,9.20
2022-08-22T06:05:01.974Z,8.60
2022-08-22T06:06:01.966Z,10.40
2022-08-22T06:07:01.974Z,10.20
2022-08-22T06:08:01.937Z,11.80
2022-08-22T06:09:01.924Z,10.20
2022-08-22T06:10:01.917Z,7.40
2022-08-22T06:11:01.904Z,14.20
2022-08-22T06:12:01.886Z,10.60
2022-08-22T06:13:01.877Z,12.00
2022-08-22T06:14:01.878Z,13.20
2022-08-22T06:15:01.866Z,9.90
2022-08-22T06:16:01.826Z,12.60
2022-08-22T06:17:01.828Z,10.40
2022-08-22T06:18:01.806Z,11.30
2022-08-22T06:19:01.789Z,10.90
2022-08-22T06:20:01.795Z,11.00
2022-08-22T06:21:01.766Z,15.70
2022-08-22T06:22:01.755Z,12.50
2022-08-22T06:23:01.745Z,9.80
2022-08-22T06:24:01.726Z,8.70
2022-08-22T06:25:01.726Z,9.10
2022-08-22T06:26:01.698Z,12.40
2022-08-22T06:27:01.689Z,11.70
2022-08-22T06:28:01.707Z,11.30
2022-08-22T06:29:01.658Z,14.90
2022-08-22T06:30:01.659Z,7.70
2022-08-22T06:31:01.630Z,12.10
2022-08-22T06:32:01.635Z,9.70
2022-08-22T06:33:01.619Z,10.70
2022-08-22T06:34:01.606Z,9.90
2022-08-22T06:35:01.610Z,8.00
2022-08-22T06:36:01.589Z,10.80
2022-08-22T06:37:01.558Z,6.80
2022-08-22T06:38:01.551Z,12.80
2022-08-22T06:39:01.528Z,7.10
2022-08-22T06:40:01.605Z,12.80
2022-08-22T06:41:01.497Z,7.50
2022-08-22T06:42:01.487Z,9.90
2022-08-22T06:43:01.476Z,11.00
2022-08-22T06:44:01.474Z,13.90
2022-08-22T06:45:01.459Z,13.70
2022-08-22T06:46:01.437Z,10.70
2022-08-22T06:47:01.426Z,7.00
2022-08-22T06:48:01.482Z,11.40
2022-08-22T06:49:01.388Z,9.50
2022-08-22T06:50:01.397Z,10.30
2022-08-22T06:51:01.378Z,9.60
2022-08-22T06:52:01.358Z,11.60
2022-08-22T06:53:01.357Z,10.30
2022-08-22T06:54:01.339Z,9.90
2022-08-22T06:55:01.326Z,9.40
2022-08-22T06:56:01.307Z,12.30
2022-08-22T06:57:01.287Z,10.40
2022-08-22T06:58:01.321Z,9.90
2022-08-22T06:59:01.268Z,10.90
2022-08-22T07:00:01.267Z,9.10
2022-08-22T07:01:05.642Z,8.10
2022-08-22T07:02:02.250Z,10.00
2022-08-22T07:03:01.217Z,12.20
2022-08-22T07:04:01.198Z,9.80
2022-08-22T07:05:01.187Z,8.20
2022-08-22T07:06:01.168Z,11.50
2022-08-22T07:07:01.156Z,11.20
2022-08-22T07:08:01.230Z,8.90
2022-08-22T07:09:05.617Z,14.40
2022-08-22T07:10:02.121Z,10.00
2022-08-22T07:11:01.098Z,10.30
2022-08-22T07:12:01.087Z,8.70
2022-08-22T07:13:01.069Z,8.90
2022-08-22T07:14:01.065Z,13.80
2022-08-22T07:15:01.125Z,8.60
2022-08-22T07:16:01.048Z,10.50
2022-08-22T07:17:01.018Z,7.00
2022-08-22T07:18:01.149Z,6.90
2022-08-22T07:19:00.999Z,9.00
2022-08-22T07:20:00.987Z,10.40
2022-08-22T07:21:00.988Z,9.10
2022-08-22T07:22:00.959Z,8.70
2022-08-22T07:23:00.939Z,11.60
2022-08-22T07:24:00.946Z,9.10
2022-08-22T07:25:00.909Z,8.50
2022-08-22T07:26:00.917Z,7.30
2022-08-22T07:27:00.878Z,9.70
2022-08-22T07:28:00.957Z,9.40
2022-08-22T07:29:00.859Z,10.90
2022-08-22T07:30:00.848Z,8.40
2022-08-22T07:31:00.849Z,8.40
2022-08-22T07:32:00.819Z,8.80
2022-08-22T07:33:26.023Z,10.40
2022-08-22T07:34:01.790Z,11.40
2022-08-22T07:35:00.779Z,6.30
2022-08-22T07:36:00.788Z,7.50
2022-08-22T07:37:00.759Z,9.70
2022-08-22T07:38:01.046Z,8.30
2022-08-22T07:39:00.729Z,9.30
2022-08-22T07:40:00.766Z,8.50
2022-08-22T07:41:00.717Z,8.00
2022-08-22T07:42:00.680Z,8.30
2022-08-22T07:43:00.676Z,8.10
2022-08-22T07:44:00.660Z,6.40
2022-08-22T07:45:00.653Z,9.40
2022-08-22T07:46:00.643Z,11.40
2022-08-22T07:47:00.629Z,9.00
2022-08-22T07:48:00.715Z,11.70
2022-08-22T07:49:09.098Z,7.70
2022-08-22T07:50:01.579Z,7.90
2022-08-22T07:51:00.579Z,13.70
2022-08-22T07:52:00.581Z,8.00
2022-08-22T07:53:00.539Z,10.50
2022-08-22T07:54:01.030Z,11.60
2022-08-22T07:55:00.519Z,9.30
2022-08-22T07:56:00.510Z,12.60
2022-08-22T07:57:00.489Z,12.20
2022-08-22T07:58:00.594Z,9.30
2022-08-22T07:59:00.460Z,10.70
2022-08-22T08:00:00.450Z,7.80
2022-08-22T08:01:00.530Z,10.30
2022-08-22T08:02:00.420Z,8.80
2022-08-22T08:03:00.428Z,7.50
2022-08-22T08:04:00.390Z,7.70
2022-08-22T08:05:00.397Z,10.40
2022-08-22T08:06:00.381Z,5.80
2022-08-22T08:07:00.359Z,7.80
2022-08-22T08:08:00.459Z,5.90
2022-08-22T08:09:00.339Z,8.20
2022-08-22T08:10:00.312Z,6.60
2022-08-22T08:11:00.321Z,9.30
2022-08-22T08:12:00.290Z,7.10
2022-08-22T08:13:02.264Z,5.20
2022-08-22T08:14:00.261Z,5.60
2022-08-22T08:15:00.252Z,7.00
2022-08-22T08:16:00.252Z,7.10
2022-08-22T08:17:00.231Z,7.50
2022-08-22T08:18:00.396Z,10.70
2022-08-22T08:19:00.227Z,8.00
2022-08-22T08:20:00.181Z,5.60
2022-08-22T08:21:00.189Z,7.00
2022-08-22T08:22:00.159Z,8.70
2022-08-22T08:23:00.151Z,6.10
2022-08-22T08:24:00.136Z,8.80
2022-08-22T08:25:00.121Z,7.80
2022-08-22T08:26:00.121Z,10.30
2022-08-22T08:27:00.105Z,6.40
2022-08-22T08:28:00.110Z,7.80
2022-08-22T08:29:00.074Z,7.50
2022-08-22T08:30:00.061Z,7.00
2022-08-22T08:31:00.065Z,6.80
2022-08-22T08:32:00.032Z,7.20
2022-08-22T08:33:24.829Z,8.00
2022-08-22T08:34:01.002Z,5.40
2022-08-22T08:34:59.994Z,6.20
2022-08-22T08:36:02.569Z,9.10
2022-08-22T08:36:59.975Z,8.20
2022-08-22T08:38:00.117Z,4.60
2022-08-22T08:38:59.943Z,9.20
2022-08-22T08:39:59.988Z,5.80
2022-08-22T08:40:59.944Z,8.70
2022-08-22T08:41:59.904Z,8.00
2022-08-22T08:43:00.191Z,10.30
2022-08-22T08:44:01.178Z,5.00
2022-08-22T08:45:01.135Z,8.60
2022-08-22T08:46:00.022Z,7.80
2022-08-22T08:47:00.151Z,5.70
2022-08-22T08:48:00.381Z,7.60
2022-08-22T08:49:00.017Z,6.70
2022-08-22T08:50:00.047Z,5.10
2022-08-22T08:51:02.113Z,6.10
2022-08-22T08:52:00.057Z,6.50
2022-08-22T08:52:59.975Z,7.10
2022-08-22T08:53:59.981Z,4.40
2022-08-22T08:55:00.008Z,6.50
2022-08-22T08:56:00.046Z,6.30
2022-08-22T08:56:59.976Z,5.10
2022-08-22T08:58:06.550Z,6.90
2022-08-22T08:59:00.716Z,6.60
2022-08-22T08:59:59.676Z,6.20
2022-08-22T09:00:59.689Z,8.00
2022-08-22T09:01:59.665Z,6.60
2022-08-22T09:02:59.634Z,6.80
2022-08-22T09:04:01.258Z,6.60
2022-08-22T09:04:59.615Z,7.80
2022-08-22T09:05:59.586Z,6.40
2022-08-22T09:07:01.173Z,5.60
2022-08-22T09:07:59.738Z,6.90
2022-08-22T09:08:59.553Z,8.40
2022-08-22T09:09:59.537Z,5.70
2022-08-22T09:10:59.525Z,4.40
2022-08-22T09:11:59.524Z,6.00
2022-08-22T09:13:12.529Z,4.70
2022-08-22T09:14:00.487Z,7.90
2022-08-22T09:14:59.477Z,3.60
2022-08-22T09:16:04.898Z,5.90
2022-08-22T09:17:00.466Z,7.80
2022-08-22T09:17:59.610Z,3.60
2022-08-22T09:18:59.426Z,6.40
2022-08-22T09:19:59.406Z,5.90
2022-08-22T09:20:59.397Z,5.00
2022-08-22T09:21:59.399Z,6.00
2022-08-22T09:22:59.377Z,7.00
2022-08-22T09:23:59.357Z,4.50
2022-08-22T09:24:59.347Z,4.40
2022-08-22T09:25:59.334Z,5.30
2022-08-22T09:26:59.347Z,6.00
2022-08-22T09:27:59.396Z,5.10
2022-08-22T09:28:59.299Z,5.70
2022-08-22T09:29:59.652Z,4.00
2022-08-22T09:30:59.268Z,7.30
2022-08-22T09:32:00.297Z,3.30
2022-08-22T09:32:59.239Z,4.20
2022-08-22T09:33:59.229Z,4.10
2022-08-22T09:34:59.218Z,5.10
2022-08-22T09:35:59.210Z,4.20
2022-08-22T09:36:59.199Z,6.10
2022-08-22T09:37:59.268Z,7.00
2022-08-22T09:38:59.168Z,7.00
2022-08-22T09:39:59.265Z,6.40
2022-08-22T09:41:00.204Z,3.70
2022-08-22T09:41:59.149Z,6.10
2022-08-22T09:42:59.313Z,7.20
2022-08-22T09:43:59.102Z,4.90
2022-08-22T09:44:59.088Z,4.40
2022-08-22T09:46:02.097Z,7.10
2022-08-22T09:46:59.060Z,5.50
2022-08-22T09:48:06.409Z,4.40
2022-08-22T09:49:00.030Z,7.50
2022-08-22T09:49:59.026Z,3.50
2022-08-22T09:51:13.569Z,4.60
2022-08-22T09:52:03.678Z,6.50
2022-08-22T09:53:00.391Z,8.00
2022-08-22T09:53:58.979Z,4.30
2022-08-22T09:54:58.959Z,4.90
2022-08-22T09:55:58.952Z,3.90
2022-08-22T09:56:58.931Z,3.80
2022-08-22T09:57:58.941Z,3.50
2022-08-22T09:58:58.912Z,4.90
2022-08-22T09:59:58.901Z,5.00
2022-08-22T10:00:58.902Z,7.60
2022-08-22T10:01:58.871Z,6.60
2022-08-22T10:02:58.994Z,4.20
2022-08-22T10:03:58.855Z,4.60
2022-08-22T10:04:58.833Z,6.10
2022-08-22T10:05:58.821Z,6.20
2022-08-22T10:06:58.802Z,4.20
2022-08-22T10:07:58.830Z,5.80
2022-08-22T10:08:58.782Z,4.40
2022-08-22T10:09:58.771Z,3.40
2022-08-22T10:10:58.755Z,4.40
2022-08-22T10:11:58.743Z,6.10
2022-08-22T10:12:58.868Z,2.50
2022-08-22T10:14:01.585Z,3.40
2022-08-22T10:14:58.704Z,3.10
2022-08-22T10:15:58.702Z,5.70
2022-08-22T10:16:58.674Z,5.50
2022-08-22T10:17:58.684Z,4.10
2022-08-22T10:19:00.707Z,8.00
2022-08-22T10:19:58.668Z,5.70
2022-08-22T10:20:58.624Z,5.50
2022-08-22T10:21:58.613Z,3.50
2022-08-22T10:22:58.889Z,4.00
2022-08-22T10:23:58.594Z,6.90
2022-08-22T10:24:58.783Z,3.10
2022-08-22T10:25:58.565Z,4.60
2022-08-22T10:26:58.553Z,4.70
2022-08-22T10:27:58.563Z,3.90
2022-08-22T10:28:58.524Z,5.50
2022-08-22T10:29:58.517Z,2.70
2022-08-22T10:30:58.503Z,2.60
2022-08-22T10:31:59.528Z,2.20
2022-08-22T10:32:58.670Z,4.30
2022-08-22T10:33:58.457Z,3.90
2022-08-22T10:34:58.456Z,2.80
2022-08-22T10:35:58.435Z,3.10
2022-08-22T10:36:58.426Z,3.70
2022-08-22T10:37:58.427Z,3.50
2022-08-22T10:38:58.445Z,4.80
2022-08-22T10:39:58.440Z,5.70
2022-08-22T10:40:58.379Z,4.00
2022-08-22T10:41:58.357Z,4.30
2022-08-22T10:42:59.396Z,5.10
2022-08-22T10:44:05.397Z,4.60
2022-08-22T10:44:58.338Z,6.00
2022-08-22T10:45:58.311Z,4.10
2022-08-22T10:46:58.301Z,2.90
2022-08-22T10:47:58.300Z,2.50
2022-08-22T10:48:58.281Z,5.60
2022-08-22T10:49:58.261Z,5.10
2022-08-22T10:50:58.252Z,3.70
2022-08-22T10:51:58.405Z,3.50
2022-08-22T10:52:58.399Z,3.40
2022-08-22T10:53:58.221Z,4.30
2022-08-22T10:54:58.212Z,6.30
2022-08-22T10:55:58.191Z,4.90
2022-08-22T10:56:59.295Z,6.30
2022-08-22T10:57:58.182Z,6.80
2022-08-22T10:58:58.177Z,7.00
2022-08-22T10:59:58.142Z,4.30
2022-08-22T11:00:58.398Z,5.00
2022-08-22T11:01:58.181Z,3.60
2022-08-22T11:02:58.534Z,5.50
2022-08-22T11:03:58.091Z,3.60
2022-08-22T11:04:58.097Z,5.00
2022-08-22T11:05:58.063Z,4.20
2022-08-22T11:06:58.067Z,4.00
2022-08-22T11:07:58.064Z,4.60
2022-08-22T11:08:58.034Z,3.90
2022-08-22T11:09:58.028Z,5.00
2022-08-22T11:10:58.037Z,1.90
2022-08-22T11:11:58.023Z,2.90
2022-08-22T11:12:58.209Z,2.30
2022-08-22T11:13:57.965Z,3.70
2022-08-22T11:14:57.963Z,4.20
2022-08-22T11:15:57.946Z,5.40
2022-08-22T11:16:57.944Z,3.90
2022-08-22T11:17:57.927Z,2.30
2022-08-22T11:19:02.841Z,3.70
2022-08-22T11:19:58.898Z,3.00
2022-08-22T11:20:57.909Z,3.30
2022-08-22T11:21:57.876Z,4.00
2022-08-22T11:22:57.982Z,3.50
2022-08-22T11:23:57.867Z,3.80
2022-08-22T11:25:01.178Z,4.20
2022-08-22T11:25:58.828Z,2.90
2022-08-22T11:26:58.817Z,2.90
2022-08-22T11:27:57.798Z,4.00
2022-08-22T11:28:57.811Z,5.10
2022-08-22T11:29:58.780Z,3.60
2022-08-22T11:30:57.768Z,5.40
2022-08-22T11:32:01.440Z,5.60
2022-08-22T11:32:59.545Z,4.70
2022-08-22T11:33:57.738Z,2.20
2022-08-22T11:34:57.728Z,2.80
2022-08-22T11:35:57.710Z,2.70
2022-08-22T11:36:58.699Z,4.30
2022-08-22T11:37:57.687Z,2.20
2022-08-22T11:38:57.701Z,5.60
2022-08-22T11:39:57.695Z,4.30
2022-08-22T11:40:57.670Z,3.20
2022-08-22T11:41:57.779Z,4.40
2022-08-22T11:42:57.630Z,4.50
2022-08-22T11:43:57.632Z,3.90
2022-08-22T11:44:57.614Z,5.10
2022-08-22T11:45:57.598Z,4.90
2022-08-22T11:46:58.108Z,4.90
2022-08-22T11:47:57.590Z,4.80
2022-08-22T11:48:57.581Z,4.90
2022-08-22T11:49:57.569Z,2.10
2022-08-22T11:50:57.572Z,3.00
2022-08-22T11:51:57.533Z,2.60
2022-08-22T11:52:57.523Z,3.10
2022-08-22T11:53:57.543Z,2.40
2022-08-22T11:54:57.502Z,4.70
2022-08-22T11:55:57.483Z,5.20
2022-08-22T11:56:57.473Z,6.20
2022-08-22T11:57:57.459Z,2.50
2022-08-22T11:58:57.462Z,3.20
2022-08-22T11:59:57.434Z,5.00
2022-08-22T12:00:57.424Z,4.00
2022-08-22T12:01:57.462Z,4.70
2022-08-22T12:02:57.404Z,4.80
2022-08-22T12:03:58.576Z,4.40
2022-08-22T12:04:57.391Z,5.90
2022-08-22T12:05:57.354Z,3.00
2022-08-22T12:06:57.389Z,4.20
2022-08-22T12:07:57.344Z,4.90
2022-08-22T12:08:57.344Z,4.70
2022-08-22T12:09:57.325Z,6.30
2022-08-22T12:10:57.325Z,2.70
2022-08-22T12:11:57.296Z,4.40
2022-08-22T12:12:57.285Z,4.00
2022-08-22T12:14:06.149Z,4.40
2022-08-22T12:14:58.265Z,4.80
2022-08-22T12:15:57.246Z,7.40
2022-08-22T12:16:57.246Z,8.70
2022-08-22T12:18:01.513Z,3.30
2022-08-22T12:18:57.228Z,4.20
2022-08-22T12:20:14.993Z,3.60
2022-08-22T12:20:58.186Z,4.80
2022-08-22T12:21:57.186Z,4.40
2022-08-22T12:22:57.172Z,3.60
2022-08-22T12:23:57.173Z,4.90
2022-08-22T12:25:02.190Z,3.40
2022-08-22T12:25:58.130Z,3.90
2022-08-22T12:26:57.147Z,3.20
2022-08-22T12:27:57.105Z,4.20
2022-08-22T12:28:57.119Z,4.30
2022-08-22T12:29:57.076Z,4.10
2022-08-22T12:30:57.076Z,6.10
2022-08-22T12:31:57.048Z,7.60
2022-08-22T12:32:57.107Z,4.00
2022-08-22T12:33:57.038Z,4.10
2022-08-22T12:34:57.018Z,4.40
2022-08-22T12:35:57.000Z,3.60
2022-08-22T12:36:57.000Z,4.90
2022-08-22T12:37:56.980Z,2.60
2022-08-22T12:38:56.980Z,6.40
2022-08-22T12:39:56.986Z,3.50
2022-08-22T12:40:56.950Z,5.70
2022-08-22T12:41:56.930Z,4.80
2022-08-22T12:42:56.920Z,4.20
2022-08-22T12:43:56.923Z,3.30
2022-08-22T12:44:56.900Z,3.90
2022-08-22T12:45:56.881Z,4.40
2022-08-22T12:46:56.880Z,3.70
2022-08-22T12:47:56.913Z,3.10
2022-08-22T12:48:56.882Z,3.90
2022-08-22T12:49:56.839Z,5.00
2022-08-22T12:50:56.841Z,3.00
2022-08-22T12:51:59.833Z,4.00
2022-08-22T12:52:57.801Z,3.80
2022-08-22T12:53:56.803Z,5.30
2022-08-22T12:54:56.786Z,4.70
2022-08-22T12:55:56.800Z,4.30
2022-08-22T12:56:56.762Z,7.50
2022-08-22T12:57:56.926Z,5.00
2022-08-22T12:58:56.742Z,3.30
2022-08-22T12:59:58.221Z,5.10
2022-08-22T13:00:56.797Z,3.50
2022-08-22T13:01:56.703Z,3.10
2022-08-22T13:02:56.727Z,5.20
2022-08-22T13:03:56.683Z,3.10
2022-08-22T13:04:56.674Z,4.70
2022-08-22T13:05:59.953Z,3.90
2022-08-22T13:06:56.644Z,5.60
2022-08-22T13:07:57.718Z,4.00
2022-08-22T13:08:56.635Z,5.90
2022-08-22T13:09:56.605Z,4.00
2022-08-22T13:10:56.601Z,8.10
2022-08-22T13:11:58.097Z,3.70
2022-08-22T13:12:56.574Z,3.80
2022-08-22T13:13:57.152Z,6.70
2022-08-22T13:14:56.547Z,4.20
2022-08-22T13:15:56.528Z,3.50
2022-08-22T13:16:56.516Z,6.70
2022-08-22T13:18:08.675Z,4.10
2022-08-22T13:18:57.514Z,3.20
2022-08-22T13:19:56.477Z,3.50
2022-08-22T13:20:56.471Z,2.90
2022-08-22T13:21:56.455Z,3.50
2022-08-22T13:22:56.448Z,5.10
2022-08-22T13:23:56.436Z,6.40
2022-08-22T13:24:56.427Z,6.80
2022-08-22T13:25:56.427Z,1.80
2022-08-22T13:26:56.407Z,4.60
2022-08-22T13:27:56.387Z,5.50
2022-08-22T13:29:09.245Z,3.40
2022-08-22T13:29:57.369Z,4.50
2022-08-22T13:30:56.348Z,5.10
2022-08-22T13:31:56.346Z,4.90
2022-08-22T13:32:56.319Z,4.20
2022-08-22T13:33:56.308Z,7.20
2022-08-22T13:34:56.309Z,3.20
2022-08-22T13:35:56.288Z,9.30
2022-08-22T13:36:56.269Z,5.80
2022-08-22T13:37:56.318Z,4.50
2022-08-22T13:38:56.251Z,4.00
2022-08-22T13:39:56.268Z,3.20
2022-08-22T13:40:56.219Z,3.50
2022-08-22T13:41:56.202Z,3.90
2022-08-22T13:42:56.208Z,3.00
2022-08-22T13:43:57.130Z,4.40
2022-08-22T13:44:56.190Z,7.80
2022-08-22T13:45:56.160Z,3.50
2022-08-22T13:47:13.965Z,4.00
2022-08-22T13:47:57.143Z,2.90
2022-08-22T13:49:00.739Z,2.40
2022-08-22T13:49:57.119Z,4.10
2022-08-22T13:50:56.103Z,3.40
2022-08-22T13:51:56.071Z,2.50
2022-08-22T13:52:56.072Z,4.20
2022-08-22T13:54:02.063Z,4.20
2022-08-22T13:54:57.051Z,3.70
2022-08-22T13:55:56.022Z,5.90
2022-08-22T13:56:56.011Z,4.60
2022-08-22T13:57:56.062Z,3.60
2022-08-22T13:58:55.991Z,3.30
2022-08-22T14:00:04.806Z,3.40
2022-08-22T14:00:57.406Z,4.10
2022-08-22T14:01:56.018Z,3.90
2022-08-22T14:02:55.962Z,3.00
2022-08-22T14:03:55.933Z,4.20
2022-08-22T14:04:55.914Z,5.30
2022-08-22T14:05:55.893Z,3.50
2022-08-22T14:06:56.884Z,4.50
2022-08-22T14:07:55.871Z,7.80
2022-08-22T14:08:55.883Z,5.40
2022-08-22T14:09:55.852Z,4.80
2022-08-22T14:11:02.163Z,4.10
2022-08-22T14:11:56.823Z,5.90
2022-08-22T14:12:55.823Z,3.10
2022-08-22T14:13:55.824Z,5.40
2022-08-22T14:14:55.793Z,4.80
2022-08-22T14:15:55.774Z,3.90
2022-08-22T14:16:55.765Z,3.60
2022-08-22T14:17:55.782Z,6.60
2022-08-22T14:18:55.745Z,4.30
2022-08-22T14:19:59.428Z,4.70
2022-08-22T14:20:56.725Z,6.30
2022-08-22T14:21:55.705Z,4.20
2022-08-22T14:22:58.969Z,2.80
2022-08-22T14:23:56.695Z,5.00
2022-08-22T14:24:56.011Z,6.10
2022-08-22T14:25:55.646Z,5.50
2022-08-22T14:26:57.847Z,3.90
2022-08-22T14:27:55.682Z,4.90
2022-08-22T14:28:55.619Z,3.80
2022-08-22T14:29:55.606Z,5.50
2022-08-22T14:30:59.427Z,6.30
2022-08-22T14:31:56.576Z,6.10
2022-08-22T14:32:55.567Z,8.30
2022-08-22T14:33:55.559Z,4.90
2022-08-22T14:34:55.557Z,4.50
2022-08-22T14:35:55.528Z,7.00
2022-08-22T14:36:55.518Z,4.20
2022-08-22T14:37:55.512Z,3.30
2022-08-22T14:38:55.498Z,3.70
2022-08-22T14:39:55.557Z,3.20
2022-08-22T14:40:55.478Z,4.90
2022-08-22T14:41:57.969Z,5.40
2022-08-22T14:42:55.439Z,4.30
2022-08-22T14:43:55.419Z,5.50
2022-08-22T14:44:55.429Z,4.60
2022-08-22T14:45:55.399Z,4.40
2022-08-22T14:46:55.409Z,5.10
2022-08-22T14:48:30.097Z,5.20
2022-08-22T14:48:56.371Z,3.20
2022-08-22T14:49:55.370Z,5.80
2022-08-22T14:50:55.345Z,4.10
2022-08-22T14:51:55.320Z,2.70
2022-08-22T14:52:55.319Z,4.00
2022-08-22T14:53:55.300Z,5.80
2022-08-22T14:54:55.323Z,4.70
2022-08-22T14:55:55.280Z,4.00
2022-08-22T14:56:55.271Z,5.10
2022-08-22T14:57:55.318Z,7.10
2022-08-22T14:58:55.259Z,5.20
2022-08-22T14:59:55.241Z,2.50
2022-08-22T15:00:55.221Z,4.60
2022-08-22T15:01:55.225Z,6.70
2022-08-22T15:02:55.191Z,4.30
2022-08-22T15:03:55.171Z,3.80
2022-08-22T15:04:55.171Z,3.30
2022-08-22T15:05:55.152Z,3.70
2022-08-22T15:06:55.140Z,3.60
2022-08-22T15:07:55.187Z,4.60
2022-08-22T15:08:55.112Z,5.40
2022-08-22T15:09:55.102Z,7.10
2022-08-22T15:10:55.091Z,4.30
2022-08-22T15:11:55.071Z,3.60
2022-08-22T15:12:55.083Z,3.80
2022-08-22T15:13:55.062Z,4.80
2022-08-22T15:14:55.053Z,2.90
2022-08-22T15:15:59.782Z,4.20
2022-08-22T15:16:56.022Z,3.50
2022-08-22T15:17:55.164Z,4.10
2022-08-22T15:18:54.993Z,3.40
2022-08-22T15:19:54.992Z,2.70
2022-08-22T15:20:54.964Z,3.90
2022-08-22T15:21:54.944Z,5.10
2022-08-22T15:22:54.950Z,6.00
2022-08-22T15:23:54.942Z,4.40
2022-08-22T15:24:56.415Z,6.70
2022-08-22T15:25:54.904Z,9.40
2022-08-22T15:26:55.486Z,5.30
2022-08-22T15:27:54.886Z,21.40
2022-08-22T15:28:54.875Z,12.50
2022-08-22T15:29:54.905Z,3.90
2022-08-22T15:30:54.845Z,7.00
2022-08-22T15:31:54.826Z,5.20
2022-08-22T15:32:54.926Z,4.90
2022-08-22T15:33:54.827Z,11.50
2022-08-22T15:34:54.825Z,5.10
2022-08-22T15:35:54.786Z,16.20
2022-08-22T15:36:54.797Z,5.30
2022-08-22T15:37:54.766Z,6.30
2022-08-22T15:38:54.747Z,8.70
2022-08-22T15:39:54.782Z,5.00
2022-08-22T15:40:54.717Z,5.00
2022-08-22T15:41:54.707Z,3.50
2022-08-22T15:42:54.698Z,6.10
2022-08-22T15:43:54.677Z,3.60
2022-08-22T15:44:54.679Z,3.90
2022-08-22T15:45:54.647Z,3.90
2022-08-22T15:46:54.668Z,3.80
2022-08-22T15:47:54.627Z,3.60
2022-08-22T15:48:54.617Z,2.90
2022-08-22T15:49:54.598Z,4.00
2022-08-22T15:50:54.607Z,7.10
2022-08-22T15:51:54.578Z,5.10
2022-08-22T15:52:56.542Z,3.30
2022-08-22T15:53:55.558Z,3.90
2022-08-22T15:54:54.561Z,5.70
2022-08-22T15:55:54.539Z,2.10
2022-08-22T15:56:54.532Z,3.10
2022-08-22T15:57:54.510Z,5.20
2022-08-22T15:58:54.532Z,2.70
2022-08-22T15:59:54.720Z,3.50
2022-08-22T16:00:54.481Z,4.70
2022-08-22T16:01:54.525Z,3.00
2022-08-22T16:02:54.509Z,3.60
2022-08-22T16:03:54.430Z,5.50
2022-08-22T16:04:54.438Z,5.20
2022-08-22T16:05:55.657Z,6.80
2022-08-22T16:06:54.392Z,8.40
2022-08-22T16:07:54.382Z,6.00
2022-08-22T16:08:54.375Z,3.60
2022-08-22T16:09:54.355Z,4.10
2022-08-22T16:10:54.372Z,4.50
2022-08-22T16:11:54.342Z,2.50
2022-08-22T16:12:54.383Z,2.90
2022-08-22T16:13:54.310Z,2.80
2022-08-22T16:14:54.312Z,3.90
2022-08-22T16:15:56.716Z,6.90
2022-08-22T16:16:54.281Z,2.80
2022-08-22T16:17:54.344Z,3.20
2022-08-22T16:18:54.257Z,4.60
2022-08-22T16:19:54.242Z,3.50
2022-08-22T16:20:54.245Z,4.80
2022-08-22T16:21:54.203Z,2.80
2022-08-22T16:22:54.205Z,2.80
2022-08-22T16:23:54.227Z,2.40
2022-08-22T16:24:54.174Z,8.10
2022-08-22T16:25:54.182Z,8.10
2022-08-22T16:26:54.154Z,3.80
2022-08-22T16:27:54.214Z,5.20
2022-08-22T16:28:58.341Z,4.40
2022-08-22T16:29:54.115Z,3.80
2022-08-22T16:30:54.116Z,3.40
2022-08-22T16:31:54.096Z,5.10
2022-08-22T16:32:54.084Z,5.10
2022-08-22T16:33:54.056Z,3.60
2022-08-22T16:34:54.060Z,3.60
2022-08-22T16:35:54.045Z,4.30
2022-08-22T16:36:54.025Z,4.30
2022-08-22T16:37:54.070Z,4.20
2022-08-22T16:38:54.011Z,3.50
2022-08-22T16:39:54.027Z,4.10
2022-08-22T16:40:53.987Z,4.60
2022-08-22T16:41:53.956Z,2.50
2022-08-22T16:42:53.949Z,4.60
2022-08-22T16:43:55.103Z,4.90
2022-08-22T16:45:01.012Z,3.10
2022-08-22T16:45:53.913Z,3.20
2022-08-22T16:46:53.903Z,3.60
2022-08-22T16:47:58.010Z,3.90
2022-08-22T16:48:53.881Z,3.40
2022-08-22T16:49:53.876Z,2.90
2022-08-22T16:50:53.854Z,1.80
2022-08-22T16:51:53.853Z,4.80
2022-08-22T16:52:53.824Z,6.30
2022-08-22T16:53:53.814Z,2.70
2022-08-22T16:54:53.812Z,3.00
2022-08-22T16:55:53.785Z,3.60
2022-08-22T16:56:53.764Z,3.90
2022-08-22T16:58:05.758Z,3.40
2022-08-22T16:59:06.075Z,4.90
2022-08-22T16:59:54.755Z,4.20
2022-08-22T17:00:57.722Z,4.70
2022-08-22T17:01:53.743Z,4.00
2022-08-22T17:02:53.695Z,3.90
2022-08-22T17:03:53.685Z,3.90
2022-08-22T17:04:53.675Z,4.10
2022-08-22T17:05:53.655Z,4.70
2022-08-22T17:06:53.647Z,4.50
2022-08-22T17:07:53.636Z,4.70
2022-08-22T17:08:53.615Z,3.90
2022-08-22T17:09:53.655Z,4.40
2022-08-22T17:10:53.596Z,4.10
2022-08-22T17:11:53.592Z,3.60
2022-08-22T17:12:53.565Z,5.70
2022-08-22T17:13:53.572Z,5.50
2022-08-22T17:14:53.596Z,3.00
2022-08-22T17:15:53.534Z,4.70
2022-08-22T17:16:54.266Z,5.60
2022-08-22T17:17:53.510Z,3.50
2022-08-22T17:18:53.497Z,6.00
2022-08-22T17:19:53.506Z,3.40
2022-08-22T17:20:53.476Z,4.30
2022-08-22T17:21:53.607Z,4.40
2022-08-22T17:22:53.437Z,4.70
2022-08-22T17:23:53.446Z,5.20
2022-08-22T17:24:53.427Z,4.70
2022-08-22T17:25:53.407Z,4.00
2022-08-22T17:26:55.089Z,4.80
2022-08-22T17:27:53.377Z,2.20
2022-08-22T17:28:53.360Z,3.80
2022-08-22T17:29:53.459Z,4.40
2022-08-22T17:30:53.428Z,2.70
2022-08-22T17:31:53.330Z,4.70
2022-08-22T17:32:59.040Z,4.60
2022-08-22T17:33:54.298Z,4.70
2022-08-22T17:34:53.297Z,3.80
2022-08-22T17:35:53.279Z,3.50
2022-08-22T17:36:53.263Z,3.60
2022-08-22T17:37:53.257Z,5.50
2022-08-22T17:38:53.267Z,3.80
2022-08-22T17:39:55.945Z,4.70
2022-08-22T17:40:53.211Z,3.00
2022-08-22T17:41:53.230Z,4.40
2022-08-22T17:42:53.200Z,4.40
2022-08-22T17:43:53.180Z,4.10
2022-08-22T17:44:53.169Z,3.90
2022-08-22T17:45:53.140Z,5.70